sensor_id;sensor_type;location;lat;lon;timestamp;pressure;altitude;pressure_sealevel;temperature;humidity
10127;BME280;13080;42.608;23.362;2023-12-29T00:01:10;151804.88;;;2.77;95.30
10127;BME280;13080;42.608;23.362;2023-12-29T00:03:38;151800.97;;;2.76;95.43
10127;BME280;13080;42.608;23.362;2023-12-29T00:06:06;151807.47;;;2.78;96.05
10127;BME280;13080;42.608;23.362;2023-12-29T00:08:33;151806.16;;;2.78;96.15
10127;BME280;13080;42.608;23.362;2023-12-29T00:11:00;151813.94;;;2.81;95.77
10127;BME280;13080;42.608;23.362;2023-12-29T00:13:27;151817.75;;;2.82;95.31
10127;BME280;13080;42.608;23.362;2023-12-29T00:15:55;151825.53;;;2.85;94.76
10127;BME280;13080;42.608;23.362;2023-12-29T00:18:22;151834.53;;;2.89;94.25
10127;BME280;13080;42.608;23.362;2023-12-29T00:20:51;151842.31;;;2.92;93.89
10127;BME280;13080;42.608;23.362;2023-12-29T00:23:17;151852.66;;;2.96;94.00
10127;BME280;13080;42.608;23.362;2023-12-29T00:25:44;151859.09;;;2.99;94.14
10127;BME280;13080;42.608;23.362;2023-12-29T00:28:11;151846.16;;;2.94;94.42
10127;BME280;13080;42.608;23.362;2023-12-29T00:30:39;151826.81;;;2.86;94.10
10127;BME280;13080;42.608;23.362;2023-12-29T00:33:06;151790.69;;;2.72;94.45
10127;BME280;13080;42.608;23.362;2023-12-29T00:35:36;151762.31;;;2.60;95.02
10127;BME280;13080;42.608;23.362;2023-12-29T00:38:05;151736.47;;;2.50;95.45
10127;BME280;13080;42.608;23.362;2023-12-29T00:40:32;151714.53;;;2.41;96.06
10127;BME280;13080;42.608;23.362;2023-12-29T00:43:00;151696.47;;;2.34;96.42
10127;BME280;13080;42.608;23.362;2023-12-29T00:45:27;151686.16;;;2.30;96.53
10127;BME280;13080;42.608;23.362;2023-12-29T00:47:57;151677.13;;;2.26;97.71
10127;BME280;13080;42.608;23.362;2023-12-29T00:50:24;151671.97;;;2.24;98.81
10127;BME280;13080;42.608;23.362;2023-12-29T00:52:51;151665.47;;;2.22;99.35
10127;BME280;13080;42.608;23.362;2023-12-29T00:55:20;151675.81;;;2.26;100.00
10127;BME280;13080;42.608;23.362;2023-12-29T00:57:47;151674.53;;;2.25;100.00
10127;BME280;13080;42.608;23.362;2023-12-29T01:00:14;151666.81;;;2.22;100.00
10127;BME280;13080;42.608;23.362;2023-12-29T01:02:41;151662.94;;;2.21;100.00
10127;BME280;13080;42.608;23.362;2023-12-29T01:05:08;151664.22;;;2.21;100.00
10127;BME280;13080;42.608;23.362;2023-12-29T01:07:35;151668.09;;;2.23;100.00
10127;BME280;13080;42.608;23.362;2023-12-29T01:10:02;151664.22;;;2.21;100.00
10127;BME280;13080;42.608;23.362;2023-12-29T01:12:30;151652.59;;;2.17;100.00
10127;BME280;13080;42.608;23.362;2023-12-29T01:14:57;151641.00;;;2.12;100.00
10127;BME280;13080;42.608;23.362;2023-12-29T01:17:24;151641.00;;;2.12;100.00
10127;BME280;13080;42.608;23.362;2023-12-29T01:19:53;151641.00;;;2.12;100.00
10127;BME280;13080;42.608;23.362;2023-12-29T01:22:20;151652.59;;;2.17;100.00
10127;BME280;13080;42.608;23.362;2023-12-29T01:24:47;151661.66;;;2.20;100.00
10127;BME280;13080;42.608;23.362;2023-12-29T01:27:14;151684.88;;;2.29;100.00
10127;BME280;13080;42.608;23.362;2023-12-29T01:29:42;151697.75;;;2.35;100.00
10127;BME280;13080;42.608;23.362;2023-12-29T01:32:09;151718.41;;;2.43;100.00
10127;BME280;13080;42.608;23.362;2023-12-29T01:34:36;151744.19;;;2.53;100.00
10127;BME280;13080;42.608;23.362;2023-12-29T01:37:03;151763.59;;;2.61;100.00
10127;BME280;13080;42.608;23.362;2023-12-29T01:39:30;151755.81;;;2.58;99.30
10127;BME280;13080;42.608;23.362;2023-12-29T01:41:57;151705.53;;;2.38;98.52
10127;BME280;13080;42.608;23.362;2023-12-29T01:44:24;151665.47;;;2.22;99.26
10127;BME280;13080;42.608;23.362;2023-12-29T01:46:54;151624.22;;;2.05;99.65
10127;BME280;13080;42.608;23.362;2023-12-29T01:49:21;151597.13;;;1.95;99.83
10127;BME280;13080;42.608;23.362;2023-12-29T01:51:50;151581.69;;;1.89;99.63
10127;BME280;13080;42.608;23.362;2023-12-29T01:54:18;151558.41;;;1.79;99.57
10127;BME280;13080;42.608;23.362;2023-12-29T01:56:46;151564.91;;;1.82;99.96
10127;BME280;13080;42.608;23.362;2023-12-29T01:59:15;151562.31;;;1.81;99.97
10127;BME280;13080;42.608;23.362;2023-12-29T02:01:43;151567.47;;;1.83;100.00
10127;BME280;13080;42.608;23.362;2023-12-29T02:04:13;151567.47;;;1.83;99.95
10127;BME280;13080;42.608;23.362;2023-12-29T02:06:41;151576.50;;;1.86;100.00
10127;BME280;13080;42.608;23.362;2023-12-29T02:09:08;151577.78;;;1.87;99.91
10127;BME280;13080;42.608;23.362;2023-12-29T02:11:35;151564.91;;;1.82;99.10
10127;BME280;13080;42.608;23.362;2023-12-29T02:14:02;151566.19;;;1.82;99.01
10127;BME280;13080;42.608;23.362;2023-12-29T02:16:35;151566.19;;;1.82;99.43
10127;BME280;13080;42.608;23.362;2023-12-29T02:19:16;151571.34;;;1.84;99.92
10127;BME280;13080;42.608;23.362;2023-12-29T02:21:47;151566.19;;;1.82;100.00
10127;BME280;13080;42.608;23.362;2023-12-29T02:24:14;151567.47;;;1.83;100.00
10127;BME280;13080;42.608;23.362;2023-12-29T02:26:45;151577.78;;;1.87;100.00
10127;BME280;13080;42.608;23.362;2023-12-29T02:29:17;151593.28;;;1.93;100.00
10127;BME280;13080;42.608;23.362;2023-12-29T02:31:47;151602.28;;;1.97;100.00
10127;BME280;13080;42.608;23.362;2023-12-29T02:34:18;151617.78;;;2.03;100.00
10127;BME280;13080;42.608;23.362;2023-12-29T02:36:47;151616.50;;;2.02;100.00
10127;BME280;13080;42.608;23.362;2023-12-29T02:39:16;151619.06;;;2.03;100.00
10127;BME280;13080;42.608;23.362;2023-12-29T02:41:44;151608.72;;;1.99;100.00
10127;BME280;13080;42.608;23.362;2023-12-29T02:44:11;151607.44;;;1.99;100.00
10127;BME280;13080;42.608;23.362;2023-12-29T02:46:38;151612.59;;;2.01;100.00
10127;BME280;13080;42.608;23.362;2023-12-29T02:49:05;151602.28;;;1.97;100.00
10127;BME280;13080;42.608;23.362;2023-12-29T02:51:36;151610.06;;;2.00;100.00
10127;BME280;13080;42.608;23.362;2023-12-29T02:54:03;151602.28;;;1.97;100.00
10127;BME280;13080;42.608;23.362;2023-12-29T02:56:33;151598.44;;;1.95;100.00
10127;BME280;13080;42.608;23.362;2023-12-29T02:59:01;151597.13;;;1.95;100.00
10127;BME280;13080;42.608;23.362;2023-12-29T03:01:28;151606.16;;;1.98;100.00
10127;BME280;13080;42.608;23.362;2023-12-29T03:03:55;151621.66;;;2.04;100.00
10127;BME280;13080;42.608;23.362;2023-12-29T03:06:22;151634.53;;;2.10;100.00
10127;BME280;13080;42.608;23.362;2023-12-29T03:08:50;151661.66;;;2.20;100.00
10127;BME280;13080;42.608;23.362;2023-12-29T03:11:17;151651.31;;;2.16;100.00
10127;BME280;13080;42.608;23.362;2023-12-29T03:13:44;151644.88;;;2.14;100.00
10127;BME280;13080;42.608;23.362;2023-12-29T03:16:12;151637.09;;;2.11;100.00
10127;BME280;13080;42.608;23.362;2023-12-29T03:18:39;151633.28;;;2.09;99.68
10127;BME280;13080;42.608;23.362;2023-12-29T03:21:07;151626.81;;;2.06;99.34
10127;BME280;13080;42.608;23.362;2023-12-29T03:23:34;151615.22;;;2.02;99.51
10127;BME280;13080;42.608;23.362;2023-12-29T03:26:01;151603.56;;;1.97;98.96
10127;BME280;13080;42.608;23.362;2023-12-29T03:28:28;151579.06;;;1.87;98.62
10127;BME280;13080;42.608;23.362;2023-12-29T03:30:55;151548.13;;;1.75;98.13
10127;BME280;13080;42.608;23.362;2023-12-29T03:33:23;151514.59;;;1.62;97.79
10127;BME280;13080;42.608;23.362;2023-12-29T03:35:50;151496.56;;;1.55;96.93
10127;BME280;13080;42.608;23.362;2023-12-29T03:38:17;151486.25;;;1.51;97.29
10127;BME280;13080;42.608;23.362;2023-12-29T03:40:44;151483.63;;;1.50;97.02
10127;BME280;13080;42.608;23.362;2023-12-29T03:43:11;151488.78;;;1.52;96.97
10127;BME280;13080;42.608;23.362;2023-12-29T03:45:37;151475.91;;;1.47;97.15
10127;BME280;13080;42.608;23.362;2023-12-29T03:48:05;151437.22;;;1.31;97.09
10127;BME280;13080;42.608;23.362;2023-12-29T03:50:35;151414.03;;;1.22;98.16
10127;BME280;13080;42.608;23.362;2023-12-29T03:53:02;151406.31;;;1.19;98.23
10127;BME280;13080;42.608;23.362;2023-12-29T03:55:48;151399.81;;;1.16;99.00
10127;BME280;13080;42.608;23.362;2023-12-29T03:58:14;151388.22;;;1.12;99.09
10127;BME280;13080;42.608;23.362;2023-12-29T04:00:41;151399.81;;;1.16;99.12
10127;BME280;13080;42.608;23.362;2023-12-29T04:03:08;151394.66;;;1.14;99.07
10127;BME280;13080;42.608;23.362;2023-12-29T04:05:36;151393.38;;;1.14;99.01
10127;BME280;13080;42.608;23.362;2023-12-29T04:08:04;151385.69;;;1.11;99.38
10127;BME280;13080;42.608;23.362;2023-12-29T04:10:31;151374.06;;;1.06;99.56
10127;BME280;13080;42.608;23.362;2023-12-29T04:12:58;151371.47;;;1.05;99.47
10127;BME280;13080;42.608;23.362;2023-12-29T04:15:26;151377.91;;;1.08;99.52
10127;BME280;13080;42.608;23.362;2023-12-29T04:17:53;151386.94;;;1.11;99.48
10127;BME280;13080;42.608;23.362;2023-12-29T04:20:20;151398.56;;;1.16;99.25
10127;BME280;13080;42.608;23.362;2023-12-29T04:22:48;151398.56;;;1.16;99.14
10127;BME280;13080;42.608;23.362;2023-12-29T04:25:15;151389.56;;;1.12;99.16
10127;BME280;13080;42.608;23.362;2023-12-29T04:27:42;151362.47;;;1.01;97.80
10127;BME280;13080;42.608;23.362;2023-12-29T04:30:10;151357.31;;;0.99;97.35
10127;BME280;13080;42.608;23.362;2023-12-29T04:32:36;151334.13;;;0.90;97.79
10127;BME280;13080;42.608;23.362;2023-12-29T04:35:05;151331.53;;;0.89;99.26
10127;BME280;13080;42.608;23.362;2023-12-29T04:37:32;151330.25;;;0.89;100.00
10127;BME280;13080;42.608;23.362;2023-12-29T04:40:00;151332.81;;;0.90;100.00
10127;BME280;13080;42.608;23.362;2023-12-29T04:42:27;151341.84;;;0.93;100.00
10127;BME280;13080;42.608;23.362;2023-12-29T04:44:54;151341.84;;;0.93;100.00
10127;BME280;13080;42.608;23.362;2023-12-29T04:47:21;151347.00;;;0.95;100.00
10127;BME280;13080;42.608;23.362;2023-12-29T04:49:48;151350.88;;;0.97;100.00
10127;BME280;13080;42.608;23.362;2023-12-29T04:52:14;151350.88;;;0.97;100.00
10127;BME280;13080;42.608;23.362;2023-12-29T04:54:41;151352.16;;;0.97;100.00
10127;BME280;13080;42.608;23.362;2023-12-29T04:57:10;151366.31;;;1.03;100.00
10127;BME280;13080;42.608;23.362;2023-12-29T04:59:37;151377.91;;;1.08;100.00
10127;BME280;13080;42.608;23.362;2023-12-29T05:02:04;151381.78;;;1.09;100.00
10127;BME280;13080;42.608;23.362;2023-12-29T05:04:30;151403.72;;;1.18;100.00
10127;BME280;13080;42.608;23.362;2023-12-29T05:06:58;151406.31;;;1.19;100.00
10127;BME280;13080;42.608;23.362;2023-12-29T05:09:24;151412.75;;;1.21;100.00
10127;BME280;13080;42.608;23.362;2023-12-29T05:11:51;151411.44;;;1.21;100.00
10127;BME280;13080;42.608;23.362;2023-12-29T05:14:20;151414.03;;;1.22;100.00
10127;BME280;13080;42.608;23.362;2023-12-29T05:16:46;151412.75;;;1.21;100.00
10127;BME280;13080;42.608;23.362;2023-12-29T05:19:13;151419.19;;;1.24;100.00
10127;BME280;13080;42.608;23.362;2023-12-29T05:21:40;151417.91;;;1.23;100.00
10127;BME280;13080;42.608;23.362;2023-12-29T05:24:07;151417.91;;;1.23;100.00
10127;BME280;13080;42.608;23.362;2023-12-29T05:26:34;151416.59;;;1.23;100.00
10127;BME280;13080;42.608;23.362;2023-12-29T05:29:02;151419.19;;;1.24;100.00
10127;BME280;13080;42.608;23.362;2023-12-29T05:31:30;151433.34;;;1.30;100.00
10127;BME280;13080;42.608;23.362;2023-12-29T05:33:57;151464.31;;;1.42;100.00
10127;BME280;13080;42.608;23.362;2023-12-29T05:36:24;151469.47;;;1.44;100.00
10127;BME280;13080;42.608;23.362;2023-12-29T05:38:51;151483.63;;;1.50;100.00
10127;BME280;13080;42.608;23.362;2023-12-29T05:41:19;151482.34;;;1.49;100.00
10127;BME280;13080;42.608;23.362;2023-12-29T05:43:45;151492.69;;;1.53;100.00
10127;BME280;13080;42.608;23.362;2023-12-29T05:46:12;151499.13;;;1.56;100.00
10127;BME280;13080;42.608;23.362;2023-12-29T05:48:41;151495.25;;;1.54;100.00
10127;BME280;13080;42.608;23.362;2023-12-29T05:51:08;151490.06;;;1.52;100.00
10127;BME280;13080;42.608;23.362;2023-12-29T05:53:35;151487.50;;;1.51;100.00
10127;BME280;13080;42.608;23.362;2023-12-29T05:56:03;151477.19;;;1.47;100.00
10127;BME280;13080;42.608;23.362;2023-12-29T05:58:30;151461.72;;;1.41;100.00
10127;BME280;13080;42.608;23.362;2023-12-29T06:00:56;151457.88;;;1.39;100.00
10127;BME280;13080;42.608;23.362;2023-12-29T06:03:24;151455.28;;;1.38;100.00
10127;BME280;13080;42.608;23.362;2023-12-29T06:05:53;151447.56;;;1.35;100.00
10127;BME280;13080;42.608;23.362;2023-12-29T06:08:20;151429.50;;;1.28;100.00
10127;BME280;13080;42.608;23.362;2023-12-29T06:10:47;151415.31;;;1.22;100.00
10127;BME280;13080;42.608;23.362;2023-12-29T06:13:13;151411.44;;;1.21;100.00
10127;BME280;13080;42.608;23.362;2023-12-29T06:15:40;151405.00;;;1.18;100.00
10127;BME280;13080;42.608;23.362;2023-12-29T06:18:07;151393.38;;;1.14;100.00
10127;BME280;13080;42.608;23.362;2023-12-29T06:20:34;151379.25;;;1.08;100.00
10127;BME280;13080;42.608;23.362;2023-12-29T06:23:03;151389.56;;;1.12;100.00
10127;BME280;13080;42.608;23.362;2023-12-29T06:25:30;151386.94;;;1.11;100.00
10127;BME280;13080;42.608;23.362;2023-12-29T06:27:58;151381.78;;;1.09;100.00
10127;BME280;13080;42.608;23.362;2023-12-29T06:30:25;151377.91;;;1.08;100.00
10127;BME280;13080;42.608;23.362;2023-12-29T06:32:52;151380.50;;;1.09;100.00
10127;BME280;13080;42.608;23.362;2023-12-29T06:35:19;151392.13;;;1.13;100.00
10127;BME280;13080;42.608;23.362;2023-12-29T06:37:46;151402.44;;;1.17;100.00
10127;BME280;13080;42.608;23.362;2023-12-29T06:40:17;151414.03;;;1.22;98.54
10127;BME280;13080;42.608;23.362;2023-12-29T06:42:44;151426.91;;;1.27;98.15
10127;BME280;13080;42.608;23.362;2023-12-29T06:45:11;151432.06;;;1.29;98.08
10127;BME280;13080;42.608;23.362;2023-12-29T06:47:38;151446.28;;;1.35;97.32
10127;BME280;13080;42.608;23.362;2023-12-29T06:50:06;151460.44;;;1.40;96.99
10127;BME280;13080;42.608;23.362;2023-12-29T06:52:35;151479.81;;;1.48;97.92
10127;BME280;13080;42.608;23.362;2023-12-29T06:55:02;151495.25;;;1.54;98.53
10127;BME280;13080;42.608;23.362;2023-12-29T06:57:30;151503.00;;;1.57;98.83
10127;BME280;13080;42.608;23.362;2023-12-29T06:59:57;151495.25;;;1.54;98.35
10127;BME280;13080;42.608;23.362;2023-12-29T07:02:24;151486.25;;;1.51;97.83
10127;BME280;13080;42.608;23.362;2023-12-29T07:04:51;151481.06;;;1.49;98.28
10127;BME280;13080;42.608;23.362;2023-12-29T07:07:18;151482.34;;;1.49;98.34
10127;BME280;13080;42.608;23.362;2023-12-29T07:09:45;151491.41;;;1.53;99.26
10127;BME280;13080;42.608;23.362;2023-12-29T07:12:12;151512.00;;;1.61;100.00
10127;BME280;13080;42.608;23.362;2023-12-29T07:14:40;151549.41;;;1.76;100.00
10127;BME280;13080;42.608;23.362;2023-12-29T07:17:07;151579.06;;;1.87;100.00
10127;BME280;13080;42.608;23.362;2023-12-29T07:19:34;151611.31;;;2.00;100.00
10127;BME280;13080;42.608;23.362;2023-12-29T07:22:03;151634.53;;;2.10;100.00
10127;BME280;13080;42.608;23.362;2023-12-29T07:24:32;151652.59;;;2.17;100.00
10127;BME280;13080;42.608;23.362;2023-12-29T07:26:59;151669.38;;;2.23;100.00
10127;BME280;13080;42.608;23.362;2023-12-29T07:29:26;151692.59;;;2.33;100.00
10127;BME280;13080;42.608;23.362;2023-12-29T07:31:54;151714.53;;;2.41;100.00
10127;BME280;13080;42.608;23.362;2023-12-29T07:34:21;151737.75;;;2.50;100.00
10127;BME280;13080;42.608;23.362;2023-12-29T07:36:48;151767.47;;;2.62;100.00
10127;BME280;13080;42.608;23.362;2023-12-29T07:39:15;151786.81;;;2.70;100.00
10127;BME280;13080;42.608;23.362;2023-12-29T07:41:42;151789.38;;;2.71;100.00
10127;BME280;13080;42.608;23.362;2023-12-29T07:44:10;151835.88;;;2.89;98.88
10127;BME280;13080;42.608;23.362;2023-12-29T07:46:37;151860.38;;;2.99;96.75
10127;BME280;13080;42.608;23.362;2023-12-29T07:49:05;151846.16;;;2.94;94.53
10127;BME280;13080;42.608;23.362;2023-12-29T07:51:32;151815.22;;;2.81;93.94
10127;BME280;13080;42.608;23.362;2023-12-29T07:53:59;151800.97;;;2.76;94.18
10127;BME280;13080;42.608;23.362;2023-12-29T07:56:27;151791.97;;;2.72;94.52
10127;BME280;13080;42.608;23.362;2023-12-29T07:58:54;151793.25;;;2.73;94.63
10127;BME280;13080;42.608;23.362;2023-12-29T08:01:20;151815.22;;;2.81;94.65
10127;BME280;13080;42.608;23.362;2023-12-29T08:03:47;151864.28;;;3.01;92.49
10127;BME280;13080;42.608;23.362;2023-12-29T08:06:16;151860.38;;;2.99;92.34
10127;BME280;13080;42.608;23.362;2023-12-29T08:08:42;151851.34;;;2.96;92.42
10127;BME280;13080;42.608;23.362;2023-12-29T08:11:13;151904.28;;;3.17;91.78
10127;BME280;13080;42.608;23.362;2023-12-29T08:13:42;151924.91;;;3.25;90.47
10127;BME280;13080;42.608;23.362;2023-12-29T08:16:09;151908.13;;;3.18;91.04
10127;BME280;13080;42.608;23.362;2023-12-29T08:18:36;151904.28;;;3.17;92.20
10127;BME280;13080;42.608;23.362;2023-12-29T08:21:03;151906.84;;;3.18;93.32
10127;BME280;13080;42.608;23.362;2023-12-29T08:23:31;151915.91;;;3.21;94.49
10127;BME280;13080;42.608;23.362;2023-12-29T08:25:58;151931.41;;;3.27;95.40
10127;BME280;13080;42.608;23.362;2023-12-29T08:28:25;151963.69;;;3.40;96.55
10127;BME280;13080;42.608;23.362;2023-12-29T08:30:52;152045.06;;;3.72;95.68
10127;BME280;13080;42.608;23.362;2023-12-29T08:33:19;152069.59;;;3.82;94.30
10127;BME280;13080;42.608;23.362;2023-12-29T08:35:48;152103.19;;;3.95;90.40
10127;BME280;13080;42.608;23.362;2023-12-29T08:38:15;152078.66;;;3.86;88.36
10127;BME280;13080;42.608;23.362;2023-12-29T08:40:44;152059.25;;;3.78;87.64
10127;BME280;13080;42.608;23.362;2023-12-29T08:43:11;152065.72;;;3.81;86.82
10127;BME280;13080;42.608;23.362;2023-12-29T08:45:38;152034.72;;;3.68;87.52
10127;BME280;13080;42.608;23.362;2023-12-29T08:48:05;152037.28;;;3.69;87.86
10127;BME280;13080;42.608;23.362;2023-12-29T08:50:32;152023.09;;;3.64;88.32
10127;BME280;13080;42.608;23.362;2023-12-29T08:52:59;151977.91;;;3.46;89.22
10127;BME280;13080;42.608;23.362;2023-12-29T08:55:26;151999.88;;;3.54;89.53
10127;BME280;13080;42.608;23.362;2023-12-29T08:57:54;151974.00;;;3.44;89.45
10127;BME280;13080;42.608;23.362;2023-12-29T09:00:21;151966.28;;;3.41;90.22
10127;BME280;13080;42.608;23.362;2023-12-29T09:02:48;151975.28;;;3.45;90.74
10127;BME280;13080;42.608;23.362;2023-12-29T09:05:15;151983.06;;;3.48;91.69
10127;BME280;13080;42.608;23.362;2023-12-29T09:07:42;152002.44;;;3.56;91.63
10127;BME280;13080;42.608;23.362;2023-12-29T09:10:09;152042.47;;;3.71;90.16
10127;BME280;13080;42.608;23.362;2023-12-29T09:12:38;152041.19;;;3.71;90.30
10127;BME280;13080;42.608;23.362;2023-12-29T09:15:07;152008.88;;;3.58;90.94
10127;BME280;13080;42.608;23.362;2023-12-29T09:17:34;152007.59;;;3.58;91.65
10127;BME280;13080;42.608;23.362;2023-12-29T09:20:02;152036.00;;;3.69;91.35
10127;BME280;13080;42.608;23.362;2023-12-29T09:22:29;152051.53;;;3.75;90.98
10127;BME280;13080;42.608;23.362;2023-12-29T09:24:56;152073.50;;;3.84;90.69
10127;BME280;13080;42.608;23.362;2023-12-29T09:27:23;152074.78;;;3.84;90.49
10127;BME280;13080;42.608;23.362;2023-12-29T09:29:50;152072.16;;;3.83;90.48
10127;BME280;13080;42.608;23.362;2023-12-29T09:32:18;152065.72;;;3.81;90.49
10127;BME280;13080;42.608;23.362;2023-12-29T09:34:45;152072.16;;;3.83;91.21
10127;BME280;13080;42.608;23.362;2023-12-29T09:37:12;152085.13;;;3.88;91.49
10127;BME280;13080;42.608;23.362;2023-12-29T09:39:39;152122.56;;;4.03;91.64
10127;BME280;13080;42.608;23.362;2023-12-29T09:42:07;152180.75;;;4.26;90.37
10127;BME280;13080;42.608;23.362;2023-12-29T09:44:36;152225.97;;;4.44;89.92
10127;BME280;13080;42.608;23.362;2023-12-29T09:47:03;152255.69;;;4.56;89.91
10127;BME280;13080;42.608;23.362;2023-12-29T09:49:37;152268.59;;;4.61;89.42
10127;BME280;13080;42.608;23.362;2023-12-29T09:52:07;152317.75;;;4.81;89.07
10127;BME280;13080;42.608;23.362;2023-12-29T09:54:35;152343.59;;;4.91;88.78
10127;BME280;13080;42.608;23.362;2023-12-29T09:57:04;152355.22;;;4.95;88.46
10127;BME280;13080;42.608;23.362;2023-12-29T09:59:32;152378.53;;;5.05;88.43
10127;BME280;13080;42.608;23.362;2023-12-29T10:02:02;152408.25;;;5.16;87.41
10127;BME280;13080;42.608;23.362;2023-12-29T10:04:31;152463.91;;;5.38;87.74
10127;BME280;13080;42.608;23.362;2023-12-29T10:07:02;152494.91;;;5.51;86.91
10127;BME280;13080;42.608;23.362;2023-12-29T10:09:33;152510.44;;;5.57;85.70
10127;BME280;13080;42.608;23.362;2023-12-29T10:12:02;152541.47;;;5.69;85.02
10127;BME280;13080;42.608;23.362;2023-12-29T10:14:37;152554.47;;;5.74;83.99
10127;BME280;13080;42.608;23.362;2023-12-29T10:17:15;152572.56;;;5.81;84.17
10127;BME280;13080;42.608;23.362;2023-12-29T10:19:54;152595.84;;;5.91;82.97
10127;BME280;13080;42.608;23.362;2023-12-29T10:22:31;152591.94;;;5.89;83.22
10127;BME280;13080;42.608;23.362;2023-12-29T10:25:02;152591.94;;;5.89;82.55
10127;BME280;13080;42.608;23.362;2023-12-29T10:27:29;152588.09;;;5.88;82.36
10127;BME280;13080;42.608;23.362;2023-12-29T10:29:56;152593.28;;;5.90;83.71
10127;BME280;13080;42.608;23.362;2023-12-29T10:32:23;152607.53;;;5.95;84.19
10127;BME280;13080;42.608;23.362;2023-12-29T10:35:07;152619.19;;;6.00;83.34
10127;BME280;13080;42.608;23.362;2023-12-29T10:37:35;152626.94;;;6.03;83.12
10127;BME280;13080;42.608;23.362;2023-12-29T10:40:02;152632.13;;;6.05;83.12
10127;BME280;13080;42.608;23.362;2023-12-29T10:42:29;62715.63;;;-145.47;100.00
10127;BME280;13080;42.608;23.362;2023-12-29T10:45:06;62715.63;;;-145.47;100.00
10127;BME280;13080;42.608;23.362;2023-12-29T10:47:34;62715.63;;;-145.47;100.00
10127;BME280;13080;42.608;23.362;2023-12-29T10:50:03;62715.63;;;-145.47;100.00
10127;BME280;13080;42.608;23.362;2023-12-29T10:52:31;62715.63;;;-145.47;100.00
10127;BME280;13080;42.608;23.362;2023-12-29T10:55:05;62715.63;;;-145.47;100.00
10127;BME280;13080;42.608;23.362;2023-12-29T10:57:32;62715.63;;;-145.47;100.00
10127;BME280;13080;42.608;23.362;2023-12-29T10:59:59;62715.63;;;-145.47;100.00
10127;BME280;13080;42.608;23.362;2023-12-29T11:02:27;62715.63;;;-145.47;100.00
10127;BME280;13080;42.608;23.362;2023-12-29T11:05:03;62715.63;;;-145.47;100.00
10127;BME280;13080;42.608;23.362;2023-12-29T11:07:32;62715.63;;;-145.47;100.00
10127;BME280;13080;42.608;23.362;2023-12-29T11:10:00;62715.63;;;-145.47;100.00
10127;BME280;13080;42.608;23.362;2023-12-29T11:12:30;62715.63;;;-145.47;100.00
10127;BME280;13080;42.608;23.362;2023-12-29T11:14:57;62715.63;;;-145.47;100.00
10127;BME280;13080;42.608;23.362;2023-12-29T11:17:26;62715.63;;;-145.47;100.00
10127;BME280;13080;42.608;23.362;2023-12-29T11:19:53;62715.63;;;-145.47;100.00
10127;BME280;13080;42.608;23.362;2023-12-29T11:22:21;152650.28;;;6.12;82.79
10127;BME280;13080;42.608;23.362;2023-12-29T11:24:49;153064.72;;;7.76;75.97
10127;BME280;13080;42.608;23.362;2023-12-29T11:27:16;153059.53;;;7.74;76.37
10127;BME280;13080;42.608;23.362;2023-12-29T11:29:43;153073.75;;;7.80;76.65
10127;BME280;13080;42.608;23.362;2023-12-29T11:32:16;153072.47;;;7.79;76.40
10127;BME280;13080;42.608;23.362;2023-12-29T11:34:51;153059.53;;;7.74;76.52
10127;BME280;13080;42.608;23.362;2023-12-29T11:37:28;153041.38;;;7.67;76.12
10127;BME280;13080;42.608;23.362;2023-12-29T11:40:04;153053.03;;;7.72;75.57
10127;BME280;13080;42.608;23.362;2023-12-29T11:42:40;153049.16;;;7.70;76.17
10127;BME280;13080;42.608;23.362;2023-12-29T11:45:25;153046.56;;;7.69;76.30
10127;BME280;13080;42.608;23.362;2023-12-29T11:47:52;153042.69;;;7.67;77.04
10127;BME280;13080;42.608;23.362;2023-12-29T11:50:27;153042.69;;;7.67;78.15
10127;BME280;13080;42.608;23.362;2023-12-29T11:52:56;153032.28;;;7.63;78.19
10127;BME280;13080;42.608;23.362;2023-12-29T11:55:28;153037.47;;;7.65;78.45
10127;BME280;13080;42.608;23.362;2023-12-29T11:57:56;153042.69;;;7.67;78.04
10127;BME280;13080;42.608;23.362;2023-12-29T12:00:44;153077.66;;;7.81;75.38
10127;BME280;13080;42.608;23.362;2023-12-29T12:03:19;153089.31;;;7.86;75.43
10127;BME280;13080;42.608;23.362;2023-12-29T12:05:51;153121.72;;;7.99;74.15
10127;BME280;13080;42.608;23.362;2023-12-29T12:08:30;153160.63;;;8.14;73.13
10127;BME280;13080;42.608;23.362;2023-12-29T12:13:46;153173.59;;;8.19;72.98
10127;BME280;13080;42.608;23.362;2023-12-29T12:16:47;153172.28;;;8.19;73.07
10127;BME280;13080;42.608;23.362;2023-12-29T12:19:14;153165.81;;;8.16;73.61
10127;BME280;13080;42.608;23.362;2023-12-29T12:21:45;153155.44;;;8.12;74.30
10127;BME280;13080;42.608;23.362;2023-12-29T12:24:14;153159.28;;;8.13;74.23
10127;BME280;13080;42.608;23.362;2023-12-29T12:26:42;153161.91;;;8.15;72.63
10127;BME280;13080;42.608;23.362;2023-12-29T12:29:09;153177.50;;;8.21;72.37
10127;BME280;13080;42.608;23.362;2023-12-29T12:31:37;153193.00;;;8.27;71.91
10127;BME280;13080;42.608;23.362;2023-12-29T12:34:17;153200.81;;;8.30;71.70
10127;BME280;13080;42.608;23.362;2023-12-29T12:36:48;153215.06;;;8.36;71.64
10127;BME280;13080;42.608;23.362;2023-12-29T12:39:16;153224.16;;;8.39;71.46
10127;BME280;13080;42.608;23.362;2023-12-29T12:41:44;153251.44;;;8.50;71.00
10127;BME280;13080;42.608;23.362;2023-12-29T12:44:12;153252.72;;;8.50;70.81
10127;BME280;13080;42.608;23.362;2023-12-29T12:46:44;153226.78;;;8.40;72.32
10127;BME280;13080;42.608;23.362;2023-12-29T12:49:15;153212.47;;;8.35;72.75
10127;BME280;13080;42.608;23.362;2023-12-29T12:51:43;153195.63;;;8.28;72.86
10127;BME280;13080;42.608;23.362;2023-12-29T12:54:10;153176.16;;;8.20;73.25